createdAt,value
2017-02-28T00:00:13.160Z,99.99
2017-02-28T00:01:12.724Z,99.99
2017-02-28T00:02:12.703Z,99.99
2017-02-28T00:03:13.108Z,99.99
2017-02-28T00:04:12.663Z,99.99
2017-02-28T00:05:13.022Z,99.99
2017-02-28T00:06:12.612Z,99.99
2017-02-28T00:07:13.136Z,99.99
2017-02-28T00:08:12.969Z,99.99
2017-02-28T00:09:13.059Z,99.98
2017-02-28T00:10:12.522Z,99.99
2017-02-28T00:11:12.895Z,99.99
2017-02-28T00:12:12.478Z,99.99
2017-02-28T00:13:12.918Z,99.99
2017-02-28T00:14:12.457Z,99.99
2017-02-28T00:15:12.808Z,99.99
2017-02-28T00:16:12.386Z,99.99
2017-02-28T00:17:12.845Z,99.89
2017-02-28T00:18:12.355Z,99.99
2017-02-28T00:19:12.715Z,99.99
2017-02-28T00:20:12.692Z,99.98
2017-02-28T00:21:12.676Z,99.99
2017-02-28T00:22:12.661Z,99.99
2017-02-28T00:23:12.233Z,99.99
2017-02-28T00:24:12.622Z,99.99
2017-02-28T00:25:12.598Z,99.99
2017-02-28T00:26:12.563Z,99.99
2017-02-28T00:27:12.540Z,99.99
2017-02-28T00:28:12.531Z,99.99
2017-02-28T00:29:12.519Z,99.99
2017-02-28T00:30:12.470Z,99.99
2017-02-28T00:31:12.059Z,99.99
2017-02-28T00:32:12.420Z,99.99
2017-02-28T00:33:12.412Z,99.99
2017-02-28T00:34:12.379Z,99.99
2017-02-28T00:35:11.965Z,99.99
2017-02-28T00:36:12.349Z,99.99
2017-02-28T00:37:11.928Z,99.99
2017-02-28T00:38:11.905Z,99.99
2017-02-28T00:39:11.884Z,99.99
2017-02-28T00:40:12.253Z,99.99
2017-02-28T00:41:12.224Z,99.99
2017-02-28T00:42:12.213Z,99.99
2017-02-28T00:43:11.803Z,99.99
2017-02-28T00:44:12.162Z,99.99
2017-02-28T00:45:11.753Z,99.99
2017-02-28T00:46:11.739Z,99.99
2017-02-28T00:47:12.102Z,99.99
2017-02-28T00:48:12.078Z,99.99
2017-02-28T00:49:12.062Z,99.99
2017-02-28T00:50:12.029Z,99.99
2017-02-28T00:51:11.618Z,99.99
2017-02-28T00:52:11.977Z,99.99
2017-02-28T00:53:11.587Z,99.99
2017-02-28T00:54:11.614Z,99.99
2017-02-28T00:55:11.913Z,99.99
2017-02-28T00:56:11.896Z,99.99
2017-02-28T00:57:11.871Z,99.99
2017-02-28T00:58:11.580Z,99.99
2017-02-28T00:59:11.441Z,99.99
2017-02-28T01:00:11.825Z,99.99
2017-02-28T01:01:11.403Z,99.99
2017-02-28T01:02:11.757Z,99.99
2017-02-28T01:03:11.752Z,99.99
2017-02-28T01:04:11.339Z,99.99
2017-02-28T01:05:11.321Z,99.99
2017-02-28T01:06:11.284Z,99.99
2017-02-28T01:07:11.261Z,99.99
2017-02-28T01:08:11.626Z,99.99
2017-02-28T01:09:11.231Z,99.99
2017-02-28T01:10:11.592Z,99.99
2017-02-28T01:11:11.558Z,99.99
2017-02-28T01:12:11.538Z,99.99
2017-02-28T01:13:11.523Z,99.99
2017-02-28T01:14:11.492Z,99.99
2017-02-28T01:15:11.096Z,99.99
2017-02-28T01:16:11.057Z,99.99
2017-02-28T01:17:11.033Z,99.99
2017-02-28T01:18:11.405Z,99.99
2017-02-28T01:19:11.389Z,99.99
2017-02-28T01:20:10.973Z,99.99
2017-02-28T01:21:11.329Z,99.99
2017-02-28T01:22:10.932Z,99.99
2017-02-28T01:23:11.303Z,99.99
2017-02-28T01:24:11.270Z,99.99
2017-02-28T01:25:11.241Z,99.99
2017-02-28T01:26:11.223Z,99.99
2017-02-28T01:27:11.200Z,99.99
2017-02-28T01:28:11.189Z,99.99
2017-02-28T01:29:10.760Z,99.99
2017-02-28T01:30:11.121Z,99.99
2017-02-28T01:31:10.717Z,99.99
2017-02-28T01:32:11.098Z,99.99
2017-02-28T01:33:11.056Z,99.99
2017-02-28T01:34:11.048Z,99.99
2017-02-28T01:35:11.026Z,99.99
2017-02-28T01:36:11.018Z,99.99
2017-02-28T01:37:10.975Z,99.99
2017-02-28T01:38:10.945Z,99.99
2017-02-28T01:39:10.933Z,99.99
2017-02-28T01:40:10.910Z,99.99
2017-02-28T01:41:10.873Z,99.99
2017-02-28T01:42:10.852Z,99.99
2017-02-28T01:43:10.444Z,99.99
2017-02-28T01:44:10.811Z,99.99
2017-02-28T01:45:10.792Z,99.99
2017-02-28T01:46:10.779Z,99.99
2017-02-28T01:47:10.346Z,99.99
2017-02-28T01:48:10.328Z,99.99
2017-02-28T01:49:10.308Z,99.99
2017-02-28T01:50:10.291Z,99.99
2017-02-28T01:51:10.647Z,99.99
2017-02-28T01:52:10.652Z,99.99
2017-02-28T01:53:10.226Z,99.99
2017-02-28T01:54:10.587Z,99.99
2017-02-28T01:55:10.555Z,99.99
2017-02-28T01:56:10.524Z,99.99
2017-02-28T01:57:10.534Z,99.99
2017-02-28T01:58:10.504Z,99.99
2017-02-28T01:59:10.463Z,99.99
2017-02-28T02:00:10.441Z,99.99
2017-02-28T02:01:10.041Z,99.99
2017-02-28T02:02:10.003Z,99.99
2017-02-28T02:03:10.378Z,99.99
2017-02-28T02:04:10.350Z,99.99
2017-02-28T02:05:09.931Z,99.99
2017-02-28T02:06:09.915Z,99.99
2017-02-28T02:07:10.279Z,99.99
2017-02-28T02:08:09.875Z,99.99
2017-02-28T02:09:10.230Z,99.99
2017-02-28T02:10:10.218Z,99.99
2017-02-28T02:11:09.797Z,99.99
2017-02-28T02:12:10.161Z,99.99
2017-02-28T02:13:09.835Z,99.99
2017-02-28T02:14:10.115Z,99.99
2017-02-28T02:15:09.724Z,99.99
2017-02-28T02:16:09.693Z,99.99
2017-02-28T02:17:09.686Z,99.99
2017-02-28T02:18:10.036Z,99.99
2017-02-28T02:19:09.692Z,99.99
2017-02-28T02:20:09.991Z,99.99
2017-02-28T02:21:10.080Z,99.99
2017-02-28T02:22:09.939Z,99.99
2017-02-28T02:23:10.030Z,99.99
2017-02-28T02:24:09.890Z,99.99
2017-02-28T02:25:09.997Z,99.99
2017-02-28T02:26:09.847Z,99.99
2017-02-28T02:27:09.557Z,99.99
2017-02-28T02:28:09.776Z,99.99
2017-02-28T02:29:09.392Z,99.99
2017-02-28T02:30:09.766Z,99.99
2017-02-28T02:31:09.737Z,99.99
2017-02-28T02:32:09.323Z,99.99
2017-02-28T02:33:09.793Z,99.99
2017-02-28T02:34:09.730Z,99.99
2017-02-28T02:35:09.262Z,99.99
2017-02-28T02:36:09.617Z,99.99
2017-02-28T02:37:09.610Z,99.99
2017-02-28T02:38:09.571Z,99.99
2017-02-28T02:39:09.549Z,99.99
2017-02-28T02:40:09.609Z,99.99
2017-02-28T02:41:09.158Z,99.99
2017-02-28T02:42:09.099Z,99.99
2017-02-28T02:43:09.465Z,99.99
2017-02-28T02:44:09.438Z,99.99
2017-02-28T02:45:09.076Z,99.99
2017-02-28T02:46:09.380Z,99.99
2017-02-28T02:47:08.962Z,99.99
2017-02-28T02:48:09.345Z,99.99
2017-02-28T02:49:09.314Z,99.99
2017-02-28T02:50:09.304Z,99.99
2017-02-28T02:51:09.261Z,99.99
2017-02-28T02:52:08.853Z,99.99
2017-02-28T02:53:09.233Z,99.99
2017-02-28T02:54:08.813Z,99.99
2017-02-28T02:55:09.182Z,99.99
2017-02-28T02:56:09.141Z,99.99
2017-02-28T02:57:08.737Z,99.99
2017-02-28T02:58:09.110Z,99.99
2017-02-28T02:59:09.090Z,99.99
2017-02-28T03:00:09.056Z,99.99
2017-02-28T03:01:08.642Z,99.99
2017-02-28T03:02:09.007Z,99.99
2017-02-28T03:03:09.027Z,99.99
2017-02-28T03:04:08.964Z,99.99
2017-02-28T03:05:08.936Z,99.99
2017-02-28T03:06:08.926Z,99.99
2017-02-28T03:07:08.505Z,99.99
2017-02-28T03:08:08.865Z,99.99
2017-02-28T03:09:08.452Z,99.99
2017-02-28T03:10:08.815Z,99.99
2017-02-28T03:11:08.793Z,99.99
2017-02-28T03:12:08.773Z,99.99
2017-02-28T03:13:08.742Z,99.99
2017-02-28T03:14:08.347Z,99.99
2017-02-28T03:15:08.711Z,99.99
2017-02-28T03:16:08.680Z,99.99
2017-02-28T03:17:08.646Z,99.99
2017-02-28T03:18:08.232Z,99.99
2017-02-28T03:19:08.619Z,99.99
2017-02-28T03:20:08.196Z,99.99
2017-02-28T03:21:08.167Z,99.99
2017-02-28T03:22:08.135Z,99.99
2017-02-28T03:23:08.509Z,99.99
2017-02-28T03:24:08.095Z,99.99
2017-02-28T03:25:08.467Z,99.99
2017-02-28T03:26:08.041Z,99.99
2017-02-28T03:27:08.404Z,99.99
2017-02-28T03:28:08.383Z,99.99
2017-02-28T03:29:08.374Z,99.99
2017-02-28T03:30:08.351Z,99.99
2017-02-28T03:31:08.323Z,99.99
2017-02-28T03:32:08.285Z,99.99
2017-02-28T03:33:08.271Z,99.99
2017-02-28T03:34:08.248Z,99.99
2017-02-28T03:35:08.224Z,99.99
2017-02-28T03:36:08.199Z,99.99
2017-02-28T03:37:07.789Z,99.99
2017-02-28T03:38:08.147Z,99.99
2017-02-28T03:39:07.745Z,99.99
2017-02-28T03:40:07.714Z,99.99
2017-02-28T03:41:08.075Z,99.99
2017-02-28T03:42:08.044Z,99.99
2017-02-28T03:43:08.024Z,99.99
2017-02-28T03:44:08.057Z,99.99
2017-02-28T03:45:07.984Z,99.99
2017-02-28T03:46:07.963Z,99.99
2017-02-28T03:47:07.542Z,99.99
2017-02-28T03:48:07.574Z,99.99
2017-02-28T03:49:07.882Z,99.99
2017-02-28T03:50:07.513Z,99.99
2017-02-28T03:51:07.822Z,99.99
2017-02-28T03:52:07.800Z,99.99
2017-02-28T03:53:07.404Z,99.99
2017-02-28T03:54:07.376Z,99.99
2017-02-28T03:55:07.344Z,99.99
2017-02-28T03:56:07.735Z,99.99
2017-02-28T03:57:07.783Z,99.99
2017-02-28T03:58:07.774Z,99.99
2017-02-28T03:59:07.720Z,99.99
2017-02-28T04:00:07.301Z,99.99
2017-02-28T04:01:07.609Z,99.99
2017-02-28T04:02:07.575Z,99.99
2017-02-28T04:03:07.607Z,99.99
2017-02-28T04:04:07.175Z,99.99
2017-02-28T04:05:07.100Z,99.99
2017-02-28T04:06:07.102Z,99.99
2017-02-28T04:07:07.534Z,99.99
2017-02-28T04:08:07.031Z,99.99
2017-02-28T04:09:07.012Z,99.99
2017-02-28T04:10:07.380Z,99.99
2017-02-28T04:11:06.963Z,99.99
2017-02-28T04:12:07.036Z,99.99
2017-02-28T04:13:07.404Z,99.99
2017-02-28T04:14:06.888Z,99.99
2017-02-28T04:15:07.357Z,99.99
2017-02-28T04:16:07.236Z,99.99
2017-02-28T04:17:07.293Z,99.99
2017-02-28T04:18:07.172Z,99.99
2017-02-28T04:19:06.766Z,99.99
2017-02-28T04:20:07.124Z,99.99
2017-02-28T04:21:06.712Z,99.99
2017-02-28T04:22:07.085Z,99.99
2017-02-28T04:23:07.073Z,99.99
2017-02-28T04:24:07.032Z,99.99
2017-02-28T04:25:06.623Z,99.99
2017-02-28T04:26:06.984Z,99.99
2017-02-28T04:27:06.572Z,99.99
2017-02-28T04:28:06.943Z,99.99
2017-02-28T04:29:06.520Z,99.99
2017-02-28T04:30:06.501Z,99.99
2017-02-28T04:31:07.120Z,99.99
2017-02-28T04:32:06.451Z,99.99
2017-02-28T04:33:06.814Z,99.99
2017-02-28T04:34:06.801Z,99.99
2017-02-28T04:35:06.768Z,99.99
2017-02-28T04:36:06.748Z,99.99
2017-02-28T04:37:06.324Z,99.99
2017-02-28T04:38:06.696Z,99.99
2017-02-28T04:39:06.676Z,99.99
2017-02-28T04:40:06.643Z,99.99
2017-02-28T04:41:06.635Z,99.99
2017-02-28T04:42:06.210Z,99.99
2017-02-28T04:43:06.573Z,99.99
2017-02-28T04:44:06.548Z,99.99
2017-02-28T04:45:06.533Z,99.99
2017-02-28T04:46:06.114Z,99.99
2017-02-28T04:47:06.475Z,99.99
2017-02-28T04:48:06.065Z,99.99
2017-02-28T04:49:06.041Z,99.99
2017-02-28T04:50:06.018Z,99.99
2017-02-28T04:51:06.380Z,99.99
2017-02-28T04:52:06.368Z,99.99
2017-02-28T04:53:06.330Z,99.99
2017-02-28T04:54:06.318Z,99.99
2017-02-28T04:55:06.288Z,99.99
2017-02-28T04:56:05.877Z,99.99
2017-02-28T04:57:05.848Z,99.99
2017-02-28T04:58:05.824Z,99.99
2017-02-28T04:59:06.185Z,99.99
2017-02-28T05:00:05.767Z,99.99
2017-02-28T05:01:06.137Z,99.99
2017-02-28T05:02:06.105Z,99.99
2017-02-28T05:03:06.095Z,99.99
2017-02-28T05:04:05.691Z,99.99
2017-02-28T05:05:05.652Z,99.99
2017-02-28T05:06:06.011Z,99.99
2017-02-28T05:07:05.993Z,99.99
2017-02-28T05:08:05.963Z,99.99
2017-02-28T05:09:05.947Z,99.99
2017-02-28T05:10:05.533Z,99.99
2017-02-28T05:11:05.520Z,99.99
2017-02-28T05:12:05.490Z,99.99
2017-02-28T05:13:05.901Z,99.99
2017-02-28T05:14:05.843Z,99.99
2017-02-28T05:15:05.809Z,99.99
2017-02-28T05:16:05.395Z,99.99
2017-02-28T05:17:05.418Z,99.99
2017-02-28T05:18:05.367Z,99.99
2017-02-28T05:19:05.697Z,99.99
2017-02-28T05:20:05.707Z,99.99
2017-02-28T05:21:05.277Z,99.99
2017-02-28T05:22:05.677Z,99.99
2017-02-28T05:23:05.314Z,99.99
2017-02-28T05:24:05.626Z,99.99
2017-02-28T05:25:05.243Z,99.99
2017-02-28T05:26:05.158Z,99.99
2017-02-28T05:27:05.135Z,99.99
2017-02-28T05:28:05.502Z,99.99
2017-02-28T05:29:05.125Z,99.99
2017-02-28T05:30:05.435Z,99.99
2017-02-28T05:31:05.032Z,99.99
2017-02-28T05:32:05.011Z,99.99
2017-02-28T05:33:05.461Z,99.99
2017-02-28T05:34:04.960Z,99.99
2017-02-28T05:35:04.939Z,99.99
2017-02-28T05:36:05.409Z,99.99
2017-02-28T05:37:04.886Z,99.99
2017-02-28T05:38:04.858Z,99.99
2017-02-28T05:39:04.845Z,99.99
2017-02-28T05:40:04.810Z,99.99
2017-02-28T05:41:05.178Z,99.99
2017-02-28T05:42:05.153Z,99.99
2017-02-28T05:43:04.742Z,99.99
2017-02-28T05:44:04.714Z,99.99
2017-02-28T05:45:05.074Z,99.99
2017-02-28T05:46:04.662Z,99.99
2017-02-28T05:47:05.044Z,99.99
2017-02-28T05:48:05.013Z,99.99
2017-02-28T05:49:04.989Z,99.99
2017-02-28T05:50:04.991Z,99.99
2017-02-28T05:51:04.951Z,99.99
2017-02-28T05:52:05.016Z,99.99
2017-02-28T05:53:04.490Z,99.99
2017-02-28T05:54:04.475Z,99.99
2017-02-28T05:55:04.839Z,99.99
2017-02-28T05:56:04.428Z,99.99
2017-02-28T05:57:04.409Z,99.99
2017-02-28T05:58:04.378Z,99.99
2017-02-28T05:59:04.357Z,99.99
2017-02-28T06:00:04.327Z,99.99
2017-02-28T06:01:04.698Z,99.99
2017-02-28T06:02:04.676Z,99.99
2017-02-28T06:03:04.652Z,99.99
2017-02-28T06:04:04.240Z,99.99
2017-02-28T06:05:04.622Z,99.99
2017-02-28T06:06:04.573Z,99.99
2017-02-28T06:07:04.161Z,99.99
2017-02-28T06:08:04.531Z,99.99
2017-02-28T06:09:04.122Z,99.99
2017-02-28T06:10:04.101Z,99.99
2017-02-28T06:11:04.071Z,99.99
2017-02-28T06:12:04.041Z,99.99
2017-02-28T06:13:04.410Z,99.99
2017-02-28T06:14:03.989Z,99.99
2017-02-28T06:15:04.357Z,99.99
2017-02-28T06:16:04.339Z,99.99
2017-02-28T06:17:04.340Z,99.99
2017-02-28T06:18:04.287Z,99.99
2017-02-28T06:19:03.880Z,99.99
2017-02-28T06:20:04.236Z,99.99
2017-02-28T06:21:03.849Z,99.99
2017-02-28T06:22:03.803Z,99.99
2017-02-28T06:23:03.796Z,99.99
2017-02-28T06:24:04.146Z,99.99
2017-02-28T06:25:04.133Z,99.99
2017-02-28T06:26:04.103Z,99.99
2017-02-28T06:27:04.075Z,99.99
2017-02-28T06:28:04.043Z,99.99
2017-02-28T06:29:04.030Z,99.99
2017-02-28T06:30:04.044Z,99.99
2017-02-28T06:31:03.974Z,99.99
2017-02-28T06:32:03.571Z,99.99
2017-02-28T06:33:03.925Z,99.99
2017-02-28T06:34:03.896Z,99.99
2017-02-28T06:35:03.902Z,99.59
2017-02-28T06:36:03.858Z,99.5
2017-02-28T06:37:03.441Z,99.59
2017-02-28T06:38:03.818Z,99.59
2017-02-28T06:39:03.787Z,99.78
2017-02-28T06:40:03.758Z,99.88
2017-02-28T06:41:03.727Z,99.99
2017-02-28T06:42:03.701Z,99.5
2017-02-28T06:43:03.685Z,98.83
2017-02-28T06:44:03.265Z,98.74
2017-02-28T06:45:03.642Z,98.55
2017-02-28T06:46:03.214Z,99.02
2017-02-28T06:47:03.194Z,98.83
2017-02-28T06:48:03.181Z,99.11
2017-02-28T06:49:03.541Z,98.74
2017-02-28T06:50:03.509Z,98.17
2017-02-28T06:51:03.485Z,98.74
2017-02-28T06:52:03.092Z,98.64
2017-02-28T06:53:03.452Z,98.93
2017-02-28T06:54:03.036Z,98.55
2017-02-28T06:55:03.408Z,98.45
2017-02-28T06:56:02.996Z,98.36
2017-02-28T06:57:02.957Z,98.45
2017-02-28T06:58:03.327Z,97.69
2017-02-28T06:59:03.308Z,97.41
2017-02-28T07:00:02.892Z,97.41
2017-02-28T07:01:02.876Z,97.69
2017-02-28T07:02:03.235Z,97.41
2017-02-28T07:03:03.215Z,98.26
2017-02-28T07:04:02.799Z,97.6
2017-02-28T07:05:02.792Z,97.12
2017-02-28T07:06:02.743Z,97.17
2017-02-28T07:07:03.111Z,96.41
2017-02-28T07:08:02.706Z,96.55
2017-02-28T07:09:03.065Z,96.26
2017-02-28T07:10:03.048Z,96.65
2017-02-28T07:11:03.020Z,96.55
2017-02-28T07:12:02.596Z,95.51
2017-02-28T07:13:02.968Z,95.6
2017-02-28T07:14:02.947Z,95.6
2017-02-28T07:15:02.927Z,95.32
2017-02-28T07:16:02.515Z,95.41
2017-02-28T07:17:02.875Z,95.6
2017-02-28T07:18:02.855Z,95.51
2017-02-28T07:19:02.815Z,95.41
2017-02-28T07:20:02.825Z,95.51
2017-02-28T07:21:02.384Z,95.89
2017-02-28T07:22:02.756Z,95.98
2017-02-28T07:23:02.728Z,95.98
2017-02-28T07:24:02.322Z,96.26
2017-02-28T07:25:02.297Z,96.26
2017-02-28T07:26:02.262Z,96.26
2017-02-28T07:27:02.251Z,96.36
2017-02-28T07:28:02.610Z,96.65
2017-02-28T07:29:02.601Z,97.03
2017-02-28T07:30:02.559Z,97.03
2017-02-28T07:31:02.538Z,97.12
2017-02-28T07:32:02.508Z,97.03
2017-02-28T07:33:02.114Z,97.41
2017-02-28T07:34:02.078Z,97.41
2017-02-28T07:35:02.457Z,97.12
2017-02-28T07:36:02.024Z,97.12
2017-02-28T07:37:02.405Z,97.12
2017-02-28T07:38:02.385Z,97.22
2017-02-28T07:39:02.344Z,97.03
2017-02-28T07:40:01.945Z,97.22
2017-02-28T07:41:02.304Z,97.03
2017-02-28T07:42:02.263Z,97.12
2017-02-28T07:43:02.241Z,97.03
2017-02-28T07:44:02.221Z,97.12
2017-02-28T07:45:01.811Z,97.31
2017-02-28T07:46:01.790Z,96.93
2017-02-28T07:47:01.760Z,97.22
2017-02-28T07:48:02.131Z,96.55
2017-02-28T07:49:02.108Z,96.36
2017-02-28T07:50:01.691Z,96.17
2017-02-28T07:51:01.677Z,95.89
2017-02-28T07:52:02.031Z,95.79
2017-02-28T07:53:01.628Z,95.6
2017-02-28T07:54:01.985Z,95.7
2017-02-28T07:55:01.957Z,95.98
2017-02-28T07:56:01.924Z,96.26
2017-02-28T07:57:01.913Z,96.08
2017-02-28T07:58:01.901Z,95.7
2017-02-28T07:59:01.860Z,95.79
2017-02-28T08:00:01.453Z,95.51
2017-02-28T08:01:01.421Z,95.89
2017-02-28T08:02:01.798Z,96.36
2017-02-28T08:03:01.381Z,96.74
2017-02-28T08:04:01.353Z,96.26
2017-02-28T08:05:01.719Z,96.08
2017-02-28T08:06:01.408Z,96.36
2017-02-28T08:07:01.279Z,95.89
2017-02-28T08:08:01.658Z,95.7
2017-02-28T08:09:01.239Z,96.17
2017-02-28T08:10:01.600Z,95.7
2017-02-28T08:11:01.577Z,95.51
2017-02-28T08:12:01.294Z,95.22
2017-02-28T08:13:01.535Z,95.6
2017-02-28T08:14:01.504Z,95.51
2017-02-28T08:15:01.092Z,95.41
2017-02-28T08:16:01.452Z,95.41
2017-02-28T08:17:01.432Z,94.74
2017-02-28T08:18:01.424Z,94.6
2017-02-28T08:19:01.001Z,94.27
2017-02-28T08:20:00.981Z,94.6
2017-02-28T08:21:01.340Z,94.03
2017-02-28T08:22:01.321Z,94.13
2017-02-28T08:23:01.292Z,93.94
2017-02-28T08:24:01.280Z,94.13
2017-02-28T08:25:01.263Z,94.42
2017-02-28T08:26:01.216Z,94.42
2017-02-28T08:27:01.205Z,94.7
2017-02-28T08:28:01.185Z,95.17
2017-02-28T08:29:00.779Z,94.89
2017-02-28T08:30:01.143Z,94.89
2017-02-28T08:31:01.114Z,95.27
2017-02-28T08:32:01.093Z,94.93
2017-02-28T08:33:01.071Z,95.08
2017-02-28T08:34:01.043Z,94.46
2017-02-28T08:35:01.020Z,95.32
2017-02-28T08:36:00.985Z,95.32
2017-02-28T08:37:00.971Z,95.46
2017-02-28T08:38:00.551Z,95.46
2017-02-28T08:39:00.539Z,95.6
2017-02-28T08:40:00.504Z,96.17
2017-02-28T08:41:00.478Z,95.6
2017-02-28T08:42:00.846Z,95.03
2017-02-28T08:43:00.823Z,95.51
2017-02-28T08:44:00.414Z,95.36
2017-02-28T08:45:00.384Z,95.41
2017-02-28T08:46:00.755Z,95.7
2017-02-28T08:47:00.730Z,95.6
2017-02-28T08:48:00.702Z,95.7
2017-02-28T08:49:00.685Z,95.79
2017-02-28T08:50:00.274Z,96.45
2017-02-28T08:51:00.241Z,96.26
2017-02-28T08:52:00.613Z,96.36
2017-02-28T08:53:00.581Z,97.12
2017-02-28T08:54:00.561Z,97.22
2017-02-28T08:55:00.539Z,96.55
2017-02-28T08:56:00.130Z,96.36
2017-02-28T08:57:00.539Z,96.55
2017-02-28T08:58:00.469Z,97.22
2017-02-28T08:59:00.543Z,97.31
2017-02-28T09:00:00.417Z,97.69
2017-02-28T09:01:00.443Z,97.03
2017-02-28T09:02:00.376Z,96.36
2017-02-28T09:02:59.966Z,96.55
2017-02-28T09:03:59.945Z,96.93
2017-02-28T09:05:00.309Z,97.03
2017-02-28T09:06:00.272Z,97.22
2017-02-28T09:06:59.905Z,96.93
2017-02-28T09:08:00.254Z,96.93
2017-02-28T09:09:00.272Z,97.5
2017-02-28T09:10:00.182Z,98.17
2017-02-28T09:11:00.232Z,98.64
2017-02-28T09:11:59.743Z,98.64
2017-02-28T09:13:00.209Z,98.64
2017-02-28T09:13:59.691Z,98.74
2017-02-28T09:15:00.080Z,98.74
2017-02-28T09:16:00.051Z,98.74
2017-02-28T09:16:59.648Z,99.11
2017-02-28T09:17:59.597Z,98.74
2017-02-28T09:18:59.664Z,99.02
2017-02-28T09:19:59.556Z,98.83
2017-02-28T09:21:00.036Z,98.74
2017-02-28T09:21:59.965Z,98.83
2017-02-28T09:22:59.877Z,99.11
2017-02-28T09:23:59.451Z,98.83
2017-02-28T09:24:59.444Z,98.45
2017-02-28T09:25:59.803Z,98.93
2017-02-28T09:26:59.894Z,98.64
2017-02-28T09:27:59.750Z,97.6
2017-02-28T09:28:59.723Z,97.45
2017-02-28T09:29:59.785Z,97.6
2017-02-28T09:30:59.684Z,97.31
2017-02-28T09:31:59.745Z,96.89
2017-02-28T09:32:59.281Z,96.5
2017-02-28T09:33:59.601Z,96.31
2017-02-28T09:34:59.219Z,95.94
2017-02-28T09:35:59.600Z,96.12
2017-02-28T09:36:59.568Z,96.31
2017-02-28T09:37:59.540Z,95.27
2017-02-28T09:38:59.108Z,95.17
2017-02-28T09:39:59.490Z,95.17
2017-02-28T09:40:59.464Z,94.7
2017-02-28T09:41:59.428Z,94.79
2017-02-28T09:42:59.445Z,95.46
2017-02-28T09:43:59.413Z,95.65
2017-02-28T09:44:58.964Z,95.56
2017-02-28T09:45:58.955Z,95.27
2017-02-28T09:46:59.326Z,95.65
2017-02-28T09:47:58.915Z,95.75
2017-02-28T09:48:59.272Z,94.56
2017-02-28T09:49:59.241Z,93.41
2017-02-28T09:50:59.237Z,92.79
2017-02-28T09:51:59.191Z,93.23
2017-02-28T09:52:58.791Z,92.75
2017-02-28T09:53:59.160Z,92.65
2017-02-28T09:54:58.736Z,91.75
2017-02-28T09:55:59.119Z,91.56
2017-02-28T09:56:59.098Z,90.36
2017-02-28T09:57:58.679Z,89.51
2017-02-28T09:58:59.044Z,89.22
2017-02-28T09:59:59.045Z,88.84
2017-02-28T10:00:59.006Z,89.41
2017-02-28T10:01:58.985Z,89.56
2017-02-28T10:02:58.977Z,90.13
2017-02-28T10:03:58.565Z,90.89
2017-02-28T10:04:58.551Z,90.7
2017-02-28T10:05:58.892Z,91.37
2017-02-28T10:06:58.885Z,91.37
2017-02-28T10:07:58.876Z,91.7
2017-02-28T10:08:58.475Z,92.65
2017-02-28T10:09:58.815Z,92.08
2017-02-28T10:10:58.801Z,92.56
2017-02-28T10:11:58.778Z,92.46
2017-02-28T10:12:58.366Z,92.94
2017-02-28T10:13:58.759Z,93.04
2017-02-28T10:14:58.716Z,92.27
2017-02-28T10:15:58.308Z,92.27
2017-02-28T10:16:58.668Z,92.46
2017-02-28T10:17:58.256Z,92.36
2017-02-28T10:18:58.639Z,92.84
2017-02-28T10:19:58.620Z,94.18
2017-02-28T10:20:58.196Z,93.55
2017-02-28T10:21:58.181Z,92.7
2017-02-28T10:22:58.546Z,91.03
2017-02-28T10:23:58.139Z,90.65
2017-02-28T10:24:58.494Z,89.89
2017-02-28T10:25:58.083Z,89.61
2017-02-28T10:26:58.445Z,89.32
2017-02-28T10:27:58.053Z,88.84
2017-02-28T10:28:58.023Z,89.32
2017-02-28T10:29:58.391Z,89.03
2017-02-28T10:30:58.361Z,88.84
2017-02-28T10:31:57.957Z,88.46
2017-02-28T10:32:58.334Z,89.56
2017-02-28T10:33:58.301Z,89.94
2017-02-28T10:34:58.294Z,90.99
2017-02-28T10:35:57.871Z,91.46
2017-02-28T10:36:57.855Z,91.08
2017-02-28T10:37:58.220Z,90.94
2017-02-28T10:38:58.194Z,91.32
2017-02-28T10:39:57.783Z,91.22
2017-02-28T10:40:57.747Z,91.22
2017-02-28T10:41:58.119Z,91.08
2017-02-28T10:42:58.101Z,90.32
2017-02-28T10:43:58.066Z,90.51
2017-02-28T10:44:57.674Z,90.47
2017-02-28T10:45:58.045Z,90.28
2017-02-28T10:46:58.027Z,90.61
2017-02-28T10:47:57.985Z,90.42
2017-02-28T10:48:57.955Z,90.7
2017-02-28T10:49:57.962Z,90.99
2017-02-28T10:50:57.538Z,90.99
2017-02-28T10:51:57.514Z,90.7
2017-02-28T10:52:57.490Z,90.32
2017-02-28T10:53:57.908Z,90.42
2017-02-28T10:54:57.437Z,90.42
2017-02-28T10:55:57.809Z,89.75
2017-02-28T10:56:57.815Z,89.84
2017-02-28T10:57:57.377Z,90.13
2017-02-28T10:58:57.356Z,89.47
2017-02-28T10:59:57.337Z,89.27
2017-02-28T11:00:57.324Z,88.7
2017-02-28T11:01:57.674Z,89.27
2017-02-28T11:02:57.685Z,89.27
2017-02-28T11:03:57.644Z,88.99
2017-02-28T11:04:57.603Z,88.89
2017-02-28T11:05:57.582Z,88.32
2017-02-28T11:06:57.602Z,88.6
2017-02-28T11:07:57.542Z,88.08
2017-02-28T11:08:57.523Z,88.27
2017-02-28T11:09:57.502Z,88.08
2017-02-28T11:10:57.491Z,86.94
2017-02-28T11:11:57.061Z,85.27
2017-02-28T11:12:57.442Z,85.46
2017-02-28T11:13:57.418Z,86.41
2017-02-28T11:14:57.457Z,86.12
2017-02-28T11:15:57.370Z,86.75
2017-02-28T11:16:57.390Z,87.6
2017-02-28T11:17:56.949Z,87.13
2017-02-28T11:18:57.349Z,87.23
2017-02-28T11:19:57.286Z,87.32
2017-02-28T11:20:57.270Z,87.46
2017-02-28T11:21:56.853Z,88.13
2017-02-28T11:22:57.236Z,87.46
2017-02-28T11:23:57.205Z,88.04
2017-02-28T11:24:57.184Z,88.32
2017-02-28T11:25:57.151Z,88.7
2017-02-28T11:26:57.146Z,88.99
2017-02-28T11:27:57.113Z,88.51
2017-02-28T11:28:57.102Z,88.79
2017-02-28T11:29:57.079Z,89.08
2017-02-28T11:30:57.041Z,88.51
2017-02-28T11:31:56.650Z,88.99
2017-02-28T11:32:57.001Z,89.18
2017-02-28T11:33:56.982Z,89.18
2017-02-28T11:34:56.568Z,89.75
2017-02-28T11:35:56.951Z,90.51
2017-02-28T11:36:56.528Z,91.46
2017-02-28T11:37:56.506Z,91.94
2017-02-28T11:38:56.877Z,91.94
2017-02-28T11:39:56.499Z,91.27
2017-02-28T11:40:56.827Z,90.42
2017-02-28T11:41:56.416Z,90.08
2017-02-28T11:42:56.782Z,89.51
2017-02-28T11:43:56.374Z,89.89
2017-02-28T11:44:56.744Z,89.98
2017-02-28T11:45:56.732Z,89.61
2017-02-28T11:46:56.709Z,89.32
2017-02-28T11:47:56.709Z,88.41
2017-02-28T11:48:56.263Z,87.4
2017-02-28T11:49:56.650Z,87.4
2017-02-28T11:50:56.616Z,85.83
2017-02-28T11:51:56.216Z,84.97
2017-02-28T11:52:56.189Z,83.29
2017-02-28T11:53:56.579Z,83.25
2017-02-28T11:54:56.539Z,84.92
2017-02-28T11:55:56.127Z,85.78
2017-02-28T11:56:56.106Z,86.32
2017-02-28T11:57:56.541Z,85.97
2017-02-28T11:58:56.456Z,85.78
2017-02-28T11:59:56.554Z,85.41
2017-02-28T12:00:56.414Z,84.3
2017-02-28T12:01:56.112Z,83.39
2017-02-28T12:02:55.989Z,83.16
2017-02-28T12:03:56.424Z,83.31
2017-02-28T12:04:56.332Z,83.97
2017-02-28T12:05:56.010Z,83.97
2017-02-28T12:06:55.902Z,84.31
2017-02-28T12:07:56.330Z,84.16
2017-02-28T12:08:56.254Z,84.69
2017-02-28T12:09:56.241Z,84.12
2017-02-28T12:10:56.219Z,84.69
2017-02-28T12:11:55.901Z,84.31
2017-02-28T12:12:56.175Z,84.12
2017-02-28T12:13:56.266Z,84.07
2017-02-28T12:14:56.143Z,83.21
2017-02-28T12:15:56.216Z,83.12
2017-02-28T12:16:56.097Z,83.31
2017-02-28T12:17:56.183Z,82.83
2017-02-28T12:18:56.056Z,81.59
2017-02-28T12:19:55.767Z,80.92
2017-02-28T12:20:56.080Z,80.83
2017-02-28T12:21:55.613Z,81.3
2017-02-28T12:22:55.970Z,81.49
2017-02-28T12:23:55.963Z,81.49
2017-02-28T12:24:55.953Z,81.12
2017-02-28T12:25:55.934Z,81.02
2017-02-28T12:26:55.938Z,81.21
2017-02-28T12:27:55.503Z,81.65
2017-02-28T12:28:55.860Z,82.31
2017-02-28T12:29:55.968Z,82.41
2017-02-28T12:30:55.875Z,82.6
2017-02-28T12:31:55.901Z,82.21
2017-02-28T12:32:55.841Z,81.65
2017-02-28T12:33:55.360Z,81.07
2017-02-28T12:34:55.837Z,81.36
2017-02-28T12:35:55.350Z,81.55
2017-02-28T12:36:55.691Z,81.65
2017-02-28T12:37:55.678Z,81.46
2017-02-28T12:38:55.648Z,80.92
2017-02-28T12:39:55.232Z,80.39
2017-02-28T12:40:55.213Z,80.83
2017-02-28T12:41:55.209Z,81.02
2017-02-28T12:42:55.652Z,80.83
2017-02-28T12:43:55.565Z,81.68
2017-02-28T12:44:55.125Z,81.88
2017-02-28T12:45:55.114Z,81.59
2017-02-28T12:46:55.089Z,81.59
2017-02-28T12:47:55.479Z,82.17
2017-02-28T12:48:55.489Z,82.5
2017-02-28T12:49:55.047Z,82.41
2017-02-28T12:50:55.399Z,82.31
2017-02-28T12:51:55.375Z,82.69
2017-02-28T12:52:55.348Z,82.69